createdAt,value
2023-04-10T00:01:09.096Z,7.59
2023-04-10T00:03:47.161Z,7.58
2023-04-10T00:06:19.947Z,7.59
2023-04-10T00:08:46.868Z,7.57
2023-04-10T00:11:13.816Z,7.54
2023-04-10T00:13:43.610Z,7.56
2023-04-10T00:16:11.082Z,7.54
2023-04-10T00:18:38.967Z,7.47
2023-04-10T00:21:06.650Z,7.54
2023-04-10T00:23:38.946Z,7.62
2023-04-10T00:26:12.229Z,7.66
2023-04-10T00:28:40.972Z,7.59
2023-04-10T00:31:18.190Z,7.56
2023-04-10T00:33:57.447Z,7.54
2023-04-10T00:36:28.265Z,7.58
2023-04-10T00:38:56.355Z,7.55
2023-04-10T00:41:28.975Z,7.46
2023-04-10T00:43:56.436Z,7.52
2023-04-10T00:46:23.965Z,7.52
2023-04-10T00:48:55.808Z,7.61
2023-04-10T00:51:24.065Z,7.62
2023-04-10T00:53:52.002Z,7.61
2023-04-10T00:56:20.680Z,7.45
2023-04-10T00:58:48.710Z,7.38
2023-04-10T01:01:15.688Z,7.30
2023-04-10T01:03:45.177Z,7.29
2023-04-10T01:06:26.142Z,7.29
2023-04-10T01:09:11.618Z,7.29
2023-04-10T01:12:12.740Z,7.27
2023-04-10T01:14:49.010Z,7.21
2023-04-10T01:17:24.150Z,7.19
2023-04-10T01:20:12.901Z,7.19
2023-04-10T01:22:40.607Z,7.18
2023-04-10T01:25:17.781Z,7.08
2023-04-10T01:28:11.127Z,7.07
2023-04-10T01:30:38.172Z,6.94
2023-04-10T01:33:06.584Z,6.90
2023-04-10T01:35:33.578Z,6.91
2023-04-10T01:38:02.253Z,6.86
2023-04-10T01:40:30.227Z,6.87
2023-04-10T01:42:57.357Z,6.91
2023-04-10T01:45:33.118Z,6.87
2023-04-10T01:48:00.026Z,6.83
2023-04-10T01:50:28.222Z,6.84
2023-04-10T01:52:55.817Z,6.88
2023-04-10T01:55:25.534Z,6.90
2023-04-10T01:57:57.690Z,6.90
2023-04-10T02:00:25.353Z,6.90
2023-04-10T02:02:53.081Z,6.87
2023-04-10T02:05:21.591Z,6.84
2023-04-10T02:08:04.033Z,6.79
2023-04-10T02:10:35.653Z,6.80
2023-04-10T02:13:06.717Z,6.72
2023-04-10T02:15:34.165Z,6.67
2023-04-10T02:18:04.191Z,6.60
2023-04-10T02:20:31.901Z,6.53
2023-04-10T02:23:02.855Z,6.57
2023-04-10T02:25:33.919Z,6.54
2023-04-10T02:28:07.586Z,6.43
2023-04-10T02:30:35.274Z,6.44
2023-04-10T02:33:03.210Z,6.46
2023-04-10T02:35:31.606Z,6.43
2023-04-10T02:37:58.585Z,6.47
2023-04-10T02:40:27.230Z,6.48
2023-04-10T02:43:08.218Z,6.38
2023-04-10T02:45:35.287Z,6.44
2023-04-10T02:48:06.101Z,6.53
2023-04-10T02:50:34.110Z,6.51
2023-04-10T02:53:01.186Z,6.55
2023-04-10T02:55:29.792Z,6.61
2023-04-10T02:57:56.936Z,6.58
2023-04-10T03:00:23.914Z,6.53
2023-04-10T03:03:21.762Z,6.51
2023-04-10T03:05:52.381Z,6.47
2023-04-10T03:08:23.735Z,6.41
2023-04-10T03:10:53.074Z,6.33
2023-04-10T03:13:24.023Z,6.31
2023-04-10T03:15:51.223Z,6.21
2023-04-10T03:18:18.457Z,6.14
2023-04-10T03:20:49.045Z,6.10
2023-04-10T03:23:16.527Z,6.01
2023-04-10T03:25:43.450Z,5.92
2023-04-10T03:28:11.938Z,5.73
2023-04-10T03:30:39.019Z,5.70
2023-04-10T03:33:05.900Z,5.77
2023-04-10T03:35:34.763Z,5.77
2023-04-10T03:38:01.787Z,5.76
2023-04-10T03:40:28.892Z,5.72
2023-04-10T03:42:55.854Z,5.78
2023-04-10T03:45:22.902Z,5.83
2023-04-10T03:47:49.736Z,5.81
2023-04-10T03:50:17.316Z,5.80
2023-04-10T03:52:51.082Z,5.85
2023-04-10T03:55:18.885Z,5.84
2023-04-10T03:57:46.622Z,5.96
2023-04-10T04:00:14.330Z,6.07
2023-04-10T04:02:50.134Z,5.96
2023-04-10T04:05:51.825Z,6.08
2023-04-10T04:08:38.706Z,6.23
2023-04-10T04:11:32.001Z,6.27
2023-04-10T04:14:02.917Z,6.26
2023-04-10T04:16:49.141Z,6.25
2023-04-10T04:19:36.176Z,6.28
2023-04-10T04:22:27.184Z,6.36
2023-04-10T04:25:15.516Z,6.39
2023-04-10T04:28:02.960Z,6.45
2023-04-10T04:30:32.912Z,6.49
2023-04-10T04:33:12.214Z,6.40
2023-04-10T04:35:53.400Z,6.46
2023-04-10T04:38:34.656Z,6.58
2023-04-10T04:41:24.152Z,6.78
2023-04-10T04:44:15.070Z,6.85
2023-04-10T04:47:11.064Z,6.81
2023-04-10T04:49:51.724Z,6.83
2023-04-10T04:52:25.101Z,6.84
2023-04-10T04:55:28.796Z,6.94
2023-04-10T04:58:14.393Z,7.08
2023-04-10T05:00:47.653Z,7.26
2023-04-10T05:03:34.063Z,7.45
2023-04-10T05:06:21.861Z,7.46
2023-04-10T05:09:11.638Z,7.38
2023-04-10T05:11:58.189Z,7.27
2023-04-10T05:14:45.297Z,7.32
2023-04-10T05:17:33.824Z,7.38
2023-04-10T05:20:24.156Z,7.39
2023-04-10T05:23:05.288Z,7.53
2023-04-10T05:25:50.696Z,7.46
2023-04-10T05:28:33.856Z,7.63
2023-04-10T05:31:21.970Z,7.67
2023-04-10T05:33:58.502Z,7.78
2023-04-10T05:36:44.750Z,7.93
2023-04-10T05:39:24.789Z,8.03
2023-04-10T05:42:14.630Z,8.02
2023-04-10T05:44:52.214Z,8.06
2023-04-10T05:47:55.477Z,8.17
2023-04-10T05:50:36.180Z,8.16
2023-04-10T05:53:32.347Z,7.95
2023-04-10T05:56:05.732Z,8.09
2023-04-10T05:58:40.006Z,8.04
2023-04-10T06:01:25.538Z,7.75
2023-04-10T06:03:57.541Z,7.56
2023-04-10T06:06:26.291Z,7.57
2023-04-10T06:08:53.870Z,7.55
2023-04-10T06:11:24.294Z,7.62
2023-04-10T06:13:56.837Z,7.71
2023-04-10T06:16:37.476Z,7.83
2023-04-10T06:19:06.475Z,7.98
2023-04-10T06:21:33.455Z,8.10
2023-04-10T06:24:08.316Z,8.18
2023-04-10T06:26:41.629Z,8.30
2023-04-10T06:29:11.764Z,8.27
2023-04-10T06:31:40.592Z,8.32
2023-04-10T06:34:07.994Z,8.34
2023-04-10T06:36:35.944Z,8.49
2023-04-10T06:39:06.137Z,8.54
2023-04-10T06:41:33.356Z,8.62
2023-04-10T06:44:18.883Z,8.85
2023-04-10T06:46:46.962Z,8.95
2023-04-10T06:49:14.463Z,9.01
2023-04-10T06:51:41.253Z,9.11
2023-04-10T06:54:08.059Z,9.23
2023-04-10T06:56:39.544Z,9.21
2023-04-10T06:59:06.674Z,9.30
2023-04-10T07:01:35.867Z,9.36
2023-04-10T07:04:10.986Z,9.28
2023-04-10T07:06:45.515Z,9.38
2023-04-10T07:09:25.415Z,9.56
2023-04-10T07:11:53.330Z,9.51
2023-04-10T07:14:22.303Z,9.54
2023-04-10T07:16:50.984Z,9.61
2023-04-10T07:19:20.999Z,9.66
2023-04-10T07:21:50.227Z,9.70
2023-04-10T07:24:17.480Z,9.66
2023-04-10T07:26:49.106Z,9.64
2023-04-10T07:29:16.497Z,9.64
2023-04-10T07:31:45.906Z,9.66
2023-04-10T07:34:13.663Z,9.70
2023-04-10T07:36:40.851Z,9.75
2023-04-10T07:39:08.243Z,9.67
2023-04-10T07:41:36.474Z,9.61
2023-04-10T07:44:07.869Z,9.66
2023-04-10T07:46:34.795Z,9.65
2023-04-10T07:49:02.072Z,9.68
2023-04-10T07:51:31.164Z,9.73
2023-04-10T07:53:58.119Z,9.73
2023-04-10T07:56:31.167Z,9.86
2023-04-10T07:59:00.858Z,10.00
2023-04-10T08:01:31.135Z,10.12
2023-04-10T08:03:58.963Z,10.19
2023-04-10T08:06:32.422Z,10.07
2023-04-10T08:09:01.981Z,10.15
2023-04-10T08:11:32.566Z,10.30
2023-04-10T08:14:03.441Z,10.49
2023-04-10T08:16:35.467Z,10.43
2023-04-10T08:19:05.547Z,10.53
2023-04-10T08:21:36.430Z,10.62
2023-04-10T08:24:10.084Z,10.54
2023-04-10T08:26:37.264Z,10.58
2023-04-10T08:29:05.837Z,10.72
2023-04-10T08:31:33.254Z,10.73
2023-04-10T08:34:03.999Z,10.79
2023-04-10T08:36:32.081Z,10.98
2023-04-10T08:39:00.351Z,10.94
2023-04-10T08:41:32.417Z,10.86
2023-04-10T08:43:59.696Z,10.92
2023-04-10T08:46:32.254Z,11.00
2023-04-10T08:49:10.653Z,11.19
2023-04-10T08:51:46.699Z,11.21
2023-04-10T08:54:20.050Z,11.21
2023-04-10T08:56:53.323Z,11.19
2023-04-10T08:59:20.864Z,11.22
2023-04-10T09:01:48.393Z,11.13
2023-04-10T09:04:18.722Z,11.23
2023-04-10T09:06:50.784Z,11.27
2023-04-10T09:09:26.845Z,11.23
2023-04-10T09:12:00.241Z,11.28
2023-04-10T09:14:31.579Z,11.38
2023-04-10T09:17:14.457Z,11.46
2023-04-10T09:19:47.624Z,11.47
2023-04-10T09:22:16.221Z,11.52
2023-04-10T09:24:53.212Z,11.57
2023-04-10T09:27:29.070Z,11.56
2023-04-10T09:29:56.154Z,11.62
2023-04-10T09:32:39.301Z,11.80
2023-04-10T09:35:10.577Z,11.89
2023-04-10T09:37:38.116Z,12.02
2023-04-10T09:40:26.052Z,12.24
2023-04-10T09:42:55.527Z,12.42
2023-04-10T09:45:23.146Z,12.41
2023-04-10T09:48:08.983Z,12.62
2023-04-10T09:50:42.913Z,12.74
2023-04-10T09:53:16.066Z,12.86
2023-04-10T09:55:43.716Z,12.67
2023-04-10T09:58:11.955Z,12.70
2023-04-10T10:00:43.425Z,12.64
2023-04-10T10:03:20.680Z,12.74
2023-04-10T10:05:49.918Z,12.70
2023-04-10T10:08:25.761Z,12.88
2023-04-10T10:10:56.734Z,12.93
2023-04-10T10:13:32.929Z,13.04
2023-04-10T10:16:23.994Z,13.04
2023-04-10T10:19:10.517Z,13.25
2023-04-10T10:21:40.783Z,13.31
2023-04-10T10:24:09.073Z,13.31
2023-04-10T10:26:41.292Z,13.37
2023-04-10T10:29:13.439Z,13.54
2023-04-10T10:31:41.688Z,13.68
2023-04-10T10:34:12.950Z,13.70
2023-04-10T10:36:43.019Z,13.59
2023-04-10T10:40:09.174Z,13.54
2023-04-10T10:42:45.403Z,13.71
2023-04-10T10:45:18.456Z,13.77
2023-04-10T10:47:49.045Z,13.80
2023-04-10T10:50:16.161Z,13.86
2023-04-10T10:52:47.315Z,13.79
2023-04-10T10:55:36.396Z,13.80
2023-04-10T10:58:05.755Z,13.76
2023-04-10T11:00:51.620Z,13.79
2023-04-10T11:03:27.370Z,14.00
2023-04-10T11:06:08.551Z,13.89
2023-04-10T11:08:43.347Z,13.74
2023-04-10T11:11:22.798Z,13.77
2023-04-10T11:13:52.497Z,13.67
2023-04-10T11:16:36.021Z,13.59
2023-04-10T11:19:14.348Z,13.57
2023-04-10T11:22:03.658Z,13.53
2023-04-10T11:24:59.639Z,13.43
2023-04-10T11:27:39.590Z,13.51
2023-04-10T11:30:30.773Z,13.45
2023-04-10T11:33:00.266Z,13.44
2023-04-10T11:35:31.242Z,13.35
2023-04-10T11:38:12.745Z,13.33
2023-04-10T11:41:01.770Z,13.21
2023-04-10T11:43:32.746Z,13.19
2023-04-10T11:46:01.399Z,13.30
2023-04-10T11:48:33.365Z,13.28
2023-04-10T11:51:06.971Z,13.27
2023-04-10T11:53:43.688Z,13.42
2023-04-10T11:56:20.571Z,13.58
2023-04-10T11:58:54.002Z,13.61
2023-04-10T12:01:25.215Z,13.54
2023-04-10T12:03:54.158Z,13.56
2023-04-10T12:06:22.925Z,13.64
2023-04-10T12:08:56.763Z,13.77
2023-04-10T12:11:26.117Z,13.85
2023-04-10T12:14:00.468Z,13.84
2023-04-10T12:16:27.488Z,13.91
2023-04-10T12:18:55.505Z,14.05
2023-04-10T12:21:23.681Z,14.14
2023-04-10T12:23:55.136Z,14.29
2023-04-10T12:26:25.989Z,14.42
2023-04-10T12:28:54.681Z,14.49
2023-04-10T12:31:32.000Z,14.51
2023-04-10T12:33:59.569Z,14.39
2023-04-10T12:36:31.738Z,14.41
2023-04-10T12:39:03.665Z,14.36
2023-04-10T12:41:33.203Z,14.29
2023-04-10T12:44:13.888Z,14.27
2023-04-10T12:46:41.395Z,14.21
2023-04-10T12:49:13.729Z,14.10
2023-04-10T12:51:47.495Z,13.94
2023-04-10T12:54:35.769Z,13.86
2023-04-10T12:57:06.089Z,13.82
2023-04-10T12:59:38.977Z,13.89
2023-04-10T13:02:06.276Z,13.87
2023-04-10T13:04:35.627Z,13.95
2023-04-10T13:07:15.085Z,13.88
2023-04-10T13:09:45.076Z,13.74
2023-04-10T13:12:19.246Z,13.69
2023-04-10T13:14:50.125Z,13.73
2023-04-10T13:17:18.303Z,13.91
2023-04-10T13:19:56.280Z,13.75
2023-04-10T13:22:25.112Z,13.68
2023-04-10T13:25:03.134Z,13.69
2023-04-10T13:27:34.196Z,13.64
2023-04-10T13:30:07.065Z,13.58
2023-04-10T13:32:39.739Z,13.55
2023-04-10T13:35:11.382Z,13.51
2023-04-10T13:37:39.940Z,13.65
2023-04-10T13:40:11.926Z,13.68
2023-04-10T13:42:42.603Z,13.76
2023-04-10T13:45:13.925Z,13.76
2023-04-10T13:47:41.426Z,13.63
2023-04-10T13:50:09.431Z,13.65
2023-04-10T13:52:43.098Z,13.83
2023-04-10T13:55:13.764Z,13.84
2023-04-10T13:58:03.646Z,13.87
2023-04-10T14:00:31.688Z,13.72
2023-04-10T14:03:04.677Z,13.64
2023-04-10T14:05:32.451Z,13.92
2023-04-10T14:08:00.981Z,14.08
2023-04-10T14:10:33.865Z,13.95
2023-04-10T14:13:03.901Z,13.81
2023-04-10T14:15:40.138Z,13.82
2023-04-10T14:18:08.351Z,13.81
2023-04-10T14:20:42.539Z,13.88
2023-04-10T14:23:17.670Z,13.85
2023-04-10T14:25:57.650Z,13.84
2023-04-10T14:28:28.594Z,13.78
2023-04-10T14:30:57.060Z,13.80
2023-04-10T14:33:39.728Z,13.78
2023-04-10T14:36:09.222Z,13.80
2023-04-10T14:38:36.962Z,13.68
2023-04-10T14:41:09.784Z,13.71
2023-04-10T14:43:39.187Z,13.47
2023-04-10T14:46:06.663Z,13.21
2023-04-10T14:48:39.548Z,13.22
2023-04-10T14:51:16.079Z,13.25
2023-04-10T14:53:46.052Z,13.28
2023-04-10T14:56:13.036Z,13.18
2023-04-10T14:58:43.579Z,13.20
2023-04-10T15:01:11.269Z,13.24
2023-04-10T15:03:44.175Z,13.17
2023-04-10T15:06:13.347Z,13.01
2023-04-10T15:08:40.885Z,12.87
2023-04-10T15:11:13.603Z,12.84
2023-04-10T15:13:48.977Z,12.86
2023-04-10T15:16:16.715Z,12.88
2023-04-10T15:18:48.075Z,12.70
2023-04-10T15:21:15.653Z,12.76
2023-04-10T15:23:43.433Z,12.94
2023-04-10T15:26:13.625Z,13.00
2023-04-10T15:28:42.589Z,13.01
2023-04-10T15:31:10.347Z,13.11
2023-04-10T15:33:53.633Z,13.18
2023-04-10T15:36:21.349Z,12.93
2023-04-10T15:38:50.206Z,12.98
2023-04-10T15:41:18.080Z,13.01
2023-04-10T15:43:45.098Z,13.03
2023-04-10T15:46:18.862Z,13.01
2023-04-10T15:48:51.284Z,13.10
2023-04-10T15:51:29.105Z,13.22
2023-04-10T15:53:56.432Z,13.13
2023-04-10T15:56:24.495Z,13.30
2023-04-10T15:58:51.315Z,13.22
2023-04-10T16:01:18.159Z,13.00
2023-04-10T16:03:54.227Z,13.17
2023-04-10T16:06:26.504Z,13.21
2023-04-10T16:08:53.650Z,13.28
2023-04-10T16:11:25.251Z,13.25
2023-04-10T16:13:52.768Z,13.28
2023-04-10T16:16:20.565Z,13.18
2023-04-10T16:18:59.825Z,13.10
2023-04-10T16:21:42.795Z,12.81
2023-04-10T16:24:10.207Z,12.67
2023-04-10T16:26:37.790Z,12.64
2023-04-10T16:29:06.582Z,12.60
2023-04-10T16:31:33.752Z,12.56
2023-04-10T16:34:02.830Z,12.58
2023-04-10T16:36:30.853Z,12.57
2023-04-10T16:38:57.788Z,12.44
2023-04-10T16:41:25.333Z,12.38
2023-04-10T16:43:54.302Z,12.27
2023-04-10T16:46:27.787Z,12.25
2023-04-10T16:48:55.449Z,12.16
2023-04-10T16:51:23.942Z,12.10
2023-04-10T16:53:53.784Z,12.02
2023-04-10T16:56:22.007Z,11.95
2023-04-10T16:58:56.950Z,11.85
2023-04-10T17:01:26.672Z,11.92
2023-04-10T17:03:54.711Z,11.86
2023-04-10T17:06:22.469Z,11.86
2023-04-10T17:08:49.809Z,11.81
2023-04-10T17:11:16.766Z,11.77
2023-04-10T17:13:45.450Z,11.67
2023-04-10T17:16:15.789Z,11.58
2023-04-10T17:18:43.890Z,11.51
2023-04-10T17:21:12.005Z,11.49
2023-04-10T17:23:40.254Z,11.59
2023-04-10T17:26:13.301Z,11.62
2023-04-10T17:28:46.600Z,11.63
2023-04-10T17:31:15.400Z,11.49
2023-04-10T17:33:42.525Z,11.46
2023-04-10T17:36:11.613Z,11.48
2023-04-10T17:38:41.732Z,11.45
2023-04-10T17:41:11.057Z,11.47
2023-04-10T17:43:42.499Z,11.46
2023-04-10T17:46:15.823Z,11.40
2023-04-10T17:48:43.466Z,11.37
2023-04-10T17:51:10.485Z,11.34
2023-04-10T17:53:37.671Z,11.30
2023-04-10T17:56:05.084Z,11.26
2023-04-10T17:58:31.949Z,11.23
2023-04-10T18:00:59.188Z,11.26
2023-04-10T18:03:27.804Z,11.26
2023-04-10T18:05:54.989Z,11.24
2023-04-10T18:08:22.342Z,11.23
2023-04-10T18:10:49.731Z,11.24
2023-04-10T18:13:16.546Z,11.22
2023-04-10T18:15:43.672Z,11.08
2023-04-10T18:18:10.665Z,10.97
2023-04-10T18:20:37.608Z,10.92
2023-04-10T18:23:05.974Z,10.92
2023-04-10T18:25:32.960Z,10.98
2023-04-10T18:30:30.703Z,10.78
2023-04-10T18:32:58.380Z,10.71
2023-04-10T18:35:25.504Z,10.68
2023-04-10T18:37:52.899Z,10.73
2023-04-10T18:40:23.630Z,10.79
2023-04-10T18:42:50.410Z,10.80
2023-04-10T18:45:17.722Z,10.87
2023-04-10T18:47:46.444Z,10.86
2023-04-10T18:50:14.527Z,10.89
2023-04-10T18:52:44.784Z,10.83
2023-04-10T18:55:12.101Z,10.85
2023-04-10T18:57:38.937Z,10.87
2023-04-10T19:00:07.762Z,10.90
2023-04-10T19:02:35.443Z,10.94
2023-04-10T19:05:03.222Z,10.96
2023-04-10T19:07:32.326Z,10.86
2023-04-10T19:09:59.740Z,10.82
2023-04-10T19:12:26.740Z,10.80
2023-04-10T19:14:56.885Z,10.83
2023-04-10T19:17:24.270Z,10.82
2023-04-10T19:19:52.655Z,10.81
2023-04-10T19:22:26.594Z,10.81
2023-04-10T19:24:53.638Z,10.82
2023-04-10T19:27:20.521Z,10.82
2023-04-10T19:29:47.271Z,10.82
2023-04-10T19:32:15.088Z,10.84
2023-04-10T19:34:41.800Z,10.81
2023-04-10T19:37:09.084Z,10.79
2023-04-10T19:39:36.054Z,10.79
2023-04-10T19:42:03.368Z,10.81
2023-04-10T19:44:31.121Z,10.78
2023-04-10T19:47:03.582Z,10.74
2023-04-10T19:49:32.975Z,10.74
2023-04-10T19:52:00.926Z,10.66
2023-04-10T19:54:29.384Z,10.73
2023-04-10T19:56:57.412Z,10.76
2023-04-10T19:59:25.306Z,10.75
2023-04-10T20:01:52.824Z,10.77
2023-04-10T20:04:20.336Z,10.77
2023-04-10T20:06:48.881Z,10.69
2023-04-10T20:09:16.698Z,10.72
2023-04-10T20:11:43.592Z,10.72
2023-04-10T20:14:17.070Z,10.69
2023-04-10T20:16:47.101Z,10.66
2023-04-10T20:19:14.660Z,10.50
2023-04-10T20:21:42.422Z,10.52
2023-04-10T20:24:10.616Z,10.49
2023-04-10T20:26:37.692Z,10.43
2023-04-10T20:29:05.314Z,10.41
2023-04-10T20:31:34.554Z,10.40
2023-04-10T20:34:02.309Z,10.36
2023-04-10T20:36:29.249Z,10.35
2023-04-10T20:38:56.708Z,10.37
2023-04-10T20:41:26.223Z,10.36
2023-04-10T20:43:55.303Z,10.36
2023-04-10T20:46:22.438Z,10.38
2023-04-10T20:48:51.545Z,10.41
2023-04-10T20:51:18.391Z,10.46
2023-04-10T20:53:46.109Z,10.45
2023-04-10T20:56:12.962Z,10.40
2023-04-10T20:58:40.407Z,10.45
2023-04-10T21:01:10.239Z,10.49
2023-04-10T21:03:39.576Z,10.54
2023-04-10T21:06:07.357Z,10.62
2023-04-10T21:08:35.040Z,10.63
2023-04-10T21:11:02.007Z,10.58
2023-04-10T21:13:29.154Z,10.40
2023-04-10T21:15:57.061Z,10.36
2023-04-10T21:18:24.505Z,10.39
2023-04-10T21:20:59.099Z,10.39
2023-04-10T21:23:26.757Z,10.38
2023-04-10T21:25:54.401Z,10.36
2023-04-10T21:28:21.950Z,10.39
2023-04-10T21:30:49.629Z,10.37
2023-04-10T21:33:17.609Z,10.37
2023-04-10T21:35:44.936Z,10.38
2023-04-10T21:38:12.374Z,10.41
2023-04-10T21:40:39.472Z,10.26
2023-04-10T21:43:06.902Z,10.25
2023-04-10T21:45:36.907Z,10.23
2023-04-10T21:48:04.135Z,10.22
2023-04-10T21:50:31.096Z,10.22
2023-04-10T21:53:02.579Z,10.20
2023-04-10T21:55:29.574Z,10.20
2023-04-10T21:57:56.876Z,10.20
2023-04-10T22:00:23.982Z,10.24
2023-04-10T22:02:52.230Z,10.27
2023-04-10T22:05:19.413Z,10.28
2023-04-10T22:07:47.213Z,10.31
2023-04-10T22:10:14.860Z,10.34
2023-04-10T22:12:45.970Z,10.49
2023-04-10T22:15:18.993Z,10.50
2023-04-10T22:17:47.444Z,10.57
2023-04-10T22:20:16.051Z,10.61
2023-04-10T22:22:43.290Z,10.63
2023-04-10T22:25:10.211Z,10.74
2023-04-10T22:27:38.710Z,10.68
2023-04-10T22:30:06.338Z,10.75
2023-04-10T22:32:35.540Z,10.77
2023-04-10T22:35:04.242Z,10.68
2023-04-10T22:37:31.726Z,10.61
2023-04-10T22:40:00.069Z,10.62
2023-04-10T22:42:28.851Z,10.60
2023-04-10T22:44:57.957Z,10.67
2023-04-10T22:47:26.463Z,10.62
2023-04-10T22:49:53.986Z,10.67
2023-04-10T22:52:21.967Z,10.68
2023-04-10T22:54:48.967Z,10.55
2023-04-10T22:57:15.861Z,10.42
2023-04-10T22:59:43.960Z,10.50
2023-04-10T23:02:11.739Z,10.71
2023-04-10T23:04:38.790Z,10.93
2023-04-10T23:07:05.903Z,11.04
2023-04-10T23:09:32.987Z,10.88
2023-04-10T23:12:04.826Z,10.79
2023-04-10T23:14:35.464Z,10.74
2023-04-10T23:17:02.452Z,10.60
2023-04-10T23:19:35.866Z,10.56
2023-04-10T23:22:02.965Z,10.49
2023-04-10T23:24:30.036Z,10.44
2023-04-10T23:27:06.271Z,10.45
2023-04-10T23:29:33.945Z,10.43
2023-04-10T23:32:00.697Z,10.41
2023-04-10T23:34:28.296Z,10.39
2023-04-10T23:36:56.502Z,10.42
2023-04-10T23:39:23.494Z,10.34
2023-04-10T23:41:56.362Z,10.45
2023-04-10T23:44:23.502Z,10.62
2023-04-10T23:46:50.424Z,10.70
2023-04-10T23:49:17.569Z,10.74
2023-04-10T23:51:44.724Z,10.73
2023-04-10T23:54:12.612Z,10.74
2023-04-10T23:56:40.904Z,10.54
2023-04-10T23:59:07.843Z,10.58
